sensor_id;sensor_type;location;lat;lon;timestamp;pressure;altitude;pressure_sealevel;temperature;humidity
69027;BME280;56080;47.594;19.116;2022-07-23T00:02:07;100181;;;25.88;55.79
69027;BME280;56080;47.594;19.116;2022-07-23T00:07:07;100180;;;25.69;57.04
69027;BME280;56080;47.594;19.116;2022-07-23T00:12:07;100177;;;25.51;57.35
69027;BME280;56080;47.594;19.116;2022-07-23T00:17:07;100175;;;25.57;57.20
69027;BME280;56080;47.594;19.116;2022-07-23T00:22:07;100172;;;25.59;56.99
69027;BME280;56080;47.594;19.116;2022-07-23T00:27:07;100176;;;25.51;58.09
69027;BME280;56080;47.594;19.116;2022-07-23T00:32:07;100178;;;25.27;57.89
69027;BME280;56080;47.594;19.116;2022-07-23T00:37:07;100183;;;25.16;57.97
69027;BME280;56080;47.594;19.116;2022-07-23T00:42:07;100191;;;25.01;58.50
69027;BME280;56080;47.594;19.116;2022-07-23T00:52:07;100188;;;25.11;58.33
69027;BME280;56080;47.594;19.116;2022-07-23T00:57:08;100186;;;25.15;58.39
69027;BME280;56080;47.594;19.116;2022-07-23T01:02:07;100185;;;25.12;58.89
69027;BME280;56080;47.594;19.116;2022-07-23T01:07:07;100191;;;24.90;59.84
69027;BME280;56080;47.594;19.116;2022-07-23T01:12:07;100190;;;24.77;59.50
69027;BME280;56080;47.594;19.116;2022-07-23T01:17:07;100189;;;24.64;60.07
69027;BME280;56080;47.594;19.116;2022-07-23T01:22:07;100182;;;24.67;60.11
69027;BME280;56080;47.594;19.116;2022-07-23T01:27:07;100182;;;24.53;61.02
69027;BME280;56080;47.594;19.116;2022-07-23T01:32:08;100185;;;24.56;60.10
69027;BME280;56080;47.594;19.116;2022-07-23T01:37:08;100186;;;24.65;59.18
69027;BME280;56080;47.594;19.116;2022-07-23T01:42:08;100180;;;24.53;59.43
69027;BME280;56080;47.594;19.116;2022-07-23T01:52:10;100185;;;24.59;59.02
69027;BME280;56080;47.594;19.116;2022-07-23T01:57:07;100182;;;24.36;60.11
69027;BME280;56080;47.594;19.116;2022-07-23T02:02:08;100175;;;24.11;60.73
69027;BME280;56080;47.594;19.116;2022-07-23T02:07:07;100177;;;24.01;60.71
69027;BME280;56080;47.594;19.116;2022-07-23T02:12:07;100181;;;24.05;60.59
69027;BME280;56080;47.594;19.116;2022-07-23T02:17:07;100172;;;23.77;61.59
69027;BME280;56080;47.594;19.116;2022-07-23T02:22:07;100170;;;23.85;61.07
69027;BME280;56080;47.594;19.116;2022-07-23T02:27:07;100164;;;23.56;61.49
69027;BME280;56080;47.594;19.116;2022-07-23T02:32:08;100171;;;23.72;60.51
69027;BME280;56080;47.594;19.116;2022-07-23T02:37:08;100174;;;24.02;60.41
69027;BME280;56080;47.594;19.116;2022-07-23T02:42:07;100179;;;23.67;60.92
69027;BME280;56080;47.594;19.116;2022-07-23T02:47:07;100190;;;23.88;60.34
69027;BME280;56080;47.594;19.116;2022-07-23T02:52:10;100188;;;24.98;57.29
69027;BME280;56080;47.594;19.116;2022-07-23T02:57:07;100181;;;27.29;49.00
69027;BME280;56080;47.594;19.116;2022-07-23T03:02:07;100179;;;27.86;46.71
69027;BME280;56080;47.594;19.116;2022-07-23T03:12:14;100184;;;27.31;47.35
69027;BME280;56080;47.594;19.116;2022-07-23T03:17:08;100187;;;27.80;46.47
69027;BME280;56080;47.594;19.116;2022-07-23T03:22:07;100186;;;27.56;46.85
69027;BME280;56080;47.594;19.116;2022-07-23T03:27:07;100187;;;27.71;46.39
69027;BME280;56080;47.594;19.116;2022-07-23T03:32:08;100187;;;27.17;48.43
69027;BME280;56080;47.594;19.116;2022-07-23T03:37:07;100185;;;27.54;47.32
69027;BME280;56080;47.594;19.116;2022-07-23T03:42:07;100187;;;27.37;47.63
69027;BME280;56080;47.594;19.116;2022-07-23T03:47:07;100182;;;27.69;45.87
69027;BME280;56080;47.594;19.116;2022-07-23T03:52:07;100183;;;27.64;45.12
69027;BME280;56080;47.594;19.116;2022-07-23T03:57:07;100184;;;27.72;45.18
69027;BME280;56080;47.594;19.116;2022-07-23T04:02:08;100185;;;27.82;44.77
69027;BME280;56080;47.594;19.116;2022-07-23T04:07:07;100188;;;27.91;44.46
69027;BME280;56080;47.594;19.116;2022-07-23T04:12:07;100198;;;28.15;43.64
69027;BME280;56080;47.594;19.116;2022-07-23T04:17:07;100195;;;27.96;43.70
69027;BME280;56080;47.594;19.116;2022-07-23T04:22:08;100199;;;28.22;43.04
69027;BME280;56080;47.594;19.116;2022-07-23T04:27:07;100203;;;28.37;43.26
69027;BME280;56080;47.594;19.116;2022-07-23T04:32:07;100199;;;28.20;43.91
69027;BME280;56080;47.594;19.116;2022-07-23T04:37:07;100201;;;28.58;43.19
69027;BME280;56080;47.594;19.116;2022-07-23T04:42:07;100204;;;28.70;42.73
69027;BME280;56080;47.594;19.116;2022-07-23T04:47:08;100208;;;28.16;43.29
69027;BME280;56080;47.594;19.116;2022-07-23T04:52:07;100212;;;29.19;40.53
69027;BME280;56080;47.594;19.116;2022-07-23T04:57:07;100219;;;29.69;39.43
69027;BME280;56080;47.594;19.116;2022-07-23T05:02:08;100217;;;30.60;37.45
69027;BME280;56080;47.594;19.116;2022-07-23T05:07:07;100217;;;30.65;37.20
69027;BME280;56080;47.594;19.116;2022-07-23T05:12:08;100205;;;30.63;37.45
69027;BME280;56080;47.594;19.116;2022-07-23T05:17:08;100202;;;30.78;37.61
69027;BME280;56080;47.594;19.116;2022-07-23T05:22:07;100203;;;31.27;36.24
69027;BME280;56080;47.594;19.116;2022-07-23T05:27:09;100202;;;32.18;34.46
69027;BME280;56080;47.594;19.116;2022-07-23T05:32:07;100204;;;32.42;34.29
69027;BME280;56080;47.594;19.116;2022-07-23T05:37:08;100210;;;32.50;34.10
69027;BME280;56080;47.594;19.116;2022-07-23T05:42:08;100204;;;32.72;33.52
69027;BME280;56080;47.594;19.116;2022-07-23T05:47:07;100199;;;32.76;33.56
69027;BME280;56080;47.594;19.116;2022-07-23T05:52:08;100198;;;32.12;34.78
69027;BME280;56080;47.594;19.116;2022-07-23T05:57:09;100196;;;32.34;34.84
69027;BME280;56080;47.594;19.116;2022-07-23T06:02:08;100202;;;32.98;32.96
69027;BME280;56080;47.594;19.116;2022-07-23T06:07:07;100201;;;33.42;32.45
69027;BME280;56080;47.594;19.116;2022-07-23T06:12:08;100201;;;32.46;34.76
69027;BME280;56080;47.594;19.116;2022-07-23T06:17:08;100188;;;33.10;34.34
69027;BME280;56080;47.594;19.116;2022-07-23T06:22:07;100181;;;33.55;33.11
69027;BME280;56080;47.594;19.116;2022-07-23T06:27:08;100177;;;34.68;30.79
69027;BME280;56080;47.594;19.116;2022-07-23T06:32:08;100182;;;34.27;31.44
69027;BME280;56080;47.594;19.116;2022-07-23T06:37:08;100189;;;35.34;28.91
69027;BME280;56080;47.594;19.116;2022-07-23T06:42:08;100187;;;34.80;30.14
69027;BME280;56080;47.594;19.116;2022-07-23T06:47:08;100186;;;35.18;29.40
69027;BME280;56080;47.594;19.116;2022-07-23T06:52:08;100180;;;34.92;29.59
69027;BME280;56080;47.594;19.116;2022-07-23T06:57:08;100176;;;35.06;30.23
69027;BME280;56080;47.594;19.116;2022-07-23T07:02:08;100175;;;35.75;27.69
69027;BME280;56080;47.594;19.116;2022-07-23T07:07:08;100171;;;36.55;26.95
69027;BME280;56080;47.594;19.116;2022-07-23T07:12:08;100162;;;35.92;28.00
69027;BME280;56080;47.594;19.116;2022-07-23T07:17:08;100161;;;35.86;28.22
69027;BME280;56080;47.594;19.116;2022-07-23T07:22:07;100155;;;36.83;26.89
69027;BME280;56080;47.594;19.116;2022-07-23T07:27:08;100144;;;37.10;26.50
69027;BME280;56080;47.594;19.116;2022-07-23T07:32:08;100145;;;37.01;26.83
69027;BME280;56080;47.594;19.116;2022-07-23T07:37:08;100144;;;37.68;26.20
69027;BME280;56080;47.594;19.116;2022-07-23T07:42:08;100147;;;37.36;26.99
69027;BME280;56080;47.594;19.116;2022-07-23T07:47:08;100140;;;38.41;23.77
69027;BME280;56080;47.594;19.116;2022-07-23T07:52:08;100143;;;38.91;23.41
69027;BME280;56080;47.594;19.116;2022-07-23T07:57:08;100132;;;37.73;24.17
69027;BME280;56080;47.594;19.116;2022-07-23T08:02:08;100130;;;38.14;24.13
69027;BME280;56080;47.594;19.116;2022-07-23T08:07:08;100136;;;38.64;22.82
69027;BME280;56080;47.594;19.116;2022-07-23T08:12:08;100136;;;39.38;22.11
69027;BME280;56080;47.594;19.116;2022-07-23T08:17:15;100133;;;39.76;21.71
69027;BME280;56080;47.594;19.116;2022-07-23T08:22:08;100132;;;39.50;22.08
69027;BME280;56080;47.594;19.116;2022-07-23T08:27:08;100125;;;39.73;21.63
69027;BME280;56080;47.594;19.116;2022-07-23T08:32:17;100120;;;39.63;21.28
69027;BME280;56080;47.594;19.116;2022-07-23T08:37:08;100117;;;39.83;20.57
69027;BME280;56080;47.594;19.116;2022-07-23T08:42:08;100122;;;40.21;20.35
69027;BME280;56080;47.594;19.116;2022-07-23T08:47:10;100125;;;39.93;20.53
69027;BME280;56080;47.594;19.116;2022-07-23T08:52:08;100123;;;40.02;19.86
69027;BME280;56080;47.594;19.116;2022-07-23T08:57:08;100111;;;39.61;20.08
69027;BME280;56080;47.594;19.116;2022-07-23T09:02:08;100111;;;40.04;20.01
69027;BME280;56080;47.594;19.116;2022-07-23T09:07:08;100106;;;39.92;20.21
69027;BME280;56080;47.594;19.116;2022-07-23T09:12:09;100102;;;40.85;19.22
69027;BME280;56080;47.594;19.116;2022-07-23T09:17:09;100096;;;40.29;19.58
69027;BME280;56080;47.594;19.116;2022-07-23T09:22:24;100092;;;39.92;19.71
69027;BME280;56080;47.594;19.116;2022-07-23T09:27:08;100092;;;40.37;19.29
69027;BME280;56080;47.594;19.116;2022-07-23T09:32:08;100087;;;40.33;19.47
69027;BME280;56080;47.594;19.116;2022-07-23T09:37:09;100087;;;39.92;19.49
69027;BME280;56080;47.594;19.116;2022-07-23T09:42:16;100081;;;40.51;19.26
69027;BME280;56080;47.594;19.116;2022-07-23T09:47:08;100083;;;40.78;18.83
69027;BME280;56080;47.594;19.116;2022-07-23T09:52:08;100077;;;38.91;20.35
69027;BME280;56080;47.594;19.116;2022-07-23T09:57:10;100074;;;38.09;21.76
69027;BME280;56080;47.594;19.116;2022-07-23T10:02:09;100069;;;37.59;22.34
69027;BME280;56080;47.594;19.116;2022-07-23T10:07:09;100062;;;37.23;22.90
69027;BME280;56080;47.594;19.116;2022-07-23T10:12:18;100067;;;37.36;22.92
69027;BME280;56080;47.594;19.116;2022-07-23T10:17:08;100058;;;37.09;22.47
69027;BME280;56080;47.594;19.116;2022-07-23T10:22:09;100049;;;37.04;22.65
69027;BME280;56080;47.594;19.116;2022-07-23T10:37:14;100039;;;37.11;22.37
69027;BME280;56080;47.594;19.116;2022-07-23T10:47:35;100023;;;36.81;22.18
69027;BME280;56080;47.594;19.116;2022-07-23T10:57:08;100018;;;36.91;22.70
69027;BME280;56080;47.594;19.116;2022-07-23T11:02:23;100012;;;37.01;22.81
69027;BME280;56080;47.594;19.116;2022-07-23T11:07:08;100008;;;36.88;22.52
69027;BME280;56080;47.594;19.116;2022-07-23T11:17:18;100003;;;36.87;22.51
69027;BME280;56080;47.594;19.116;2022-07-23T11:22:08;99996;;;40.56;18.17
69027;BME280;56080;47.594;19.116;2022-07-23T11:27:08;99983;;;42.81;16.08
69027;BME280;56080;47.594;19.116;2022-07-23T11:32:25;99972;;;42.16;16.70
69027;BME280;56080;47.594;19.116;2022-07-23T11:37:09;99983;;;42.96;16.08
69027;BME280;56080;47.594;19.116;2022-07-23T11:42:08;99977;;;43.06;16.11
69027;BME280;56080;47.594;19.116;2022-07-23T11:47:10;99967;;;42.30;16.35
69027;BME280;56080;47.594;19.116;2022-07-23T11:52:09;99964;;;41.08;18.07
69027;BME280;56080;47.594;19.116;2022-07-23T11:57:08;99963;;;41.16;18.19
69027;BME280;56080;47.594;19.116;2022-07-23T12:02:08;99956;;;42.25;17.15
69027;BME280;56080;47.594;19.116;2022-07-23T12:12:08;99938;;;41.59;18.17
69027;BME280;56080;47.594;19.116;2022-07-23T12:22:08;99919;;;41.23;17.57
69027;BME280;56080;47.594;19.116;2022-07-23T12:27:08;99914;;;41.46;17.25
69027;BME280;56080;47.594;19.116;2022-07-23T12:32:25;99906;;;41.41;17.48
69027;BME280;56080;47.594;19.116;2022-07-23T12:42:11;99909;;;41.77;17.25
69027;BME280;56080;47.594;19.116;2022-07-23T12:47:08;99903;;;41.65;17.13
69027;BME280;56080;47.594;19.116;2022-07-23T12:52:15;99900;;;41.39;17.23
69027;BME280;56080;47.594;19.116;2022-07-23T12:57:08;99896;;;41.45;17.34
69027;BME280;56080;47.594;19.116;2022-07-23T13:02:08;99890;;;42.11;16.70
69027;BME280;56080;47.594;19.116;2022-07-23T13:07:09;99872;;;42.17;16.41
69027;BME280;56080;47.594;19.116;2022-07-23T13:12:09;99879;;;41.67;16.90
69027;BME280;56080;47.594;19.116;2022-07-23T13:17:08;99877;;;41.50;17.27
69027;BME280;56080;47.594;19.116;2022-07-23T13:22:10;99870;;;41.24;17.17
69027;BME280;56080;47.594;19.116;2022-07-23T13:27:08;99863;;;41.21;16.93
69027;BME280;56080;47.594;19.116;2022-07-23T13:32:12;99857;;;40.66;17.96
69027;BME280;56080;47.594;19.116;2022-07-23T13:37:08;99849;;;41.29;16.92
69027;BME280;56080;47.594;19.116;2022-07-23T13:42:08;99829;;;41.36;16.55
69027;BME280;56080;47.594;19.116;2022-07-23T13:47:08;99820;;;40.38;17.10
69027;BME280;56080;47.594;19.116;2022-07-23T13:52:08;99838;;;41.77;16.61
69027;BME280;56080;47.594;19.116;2022-07-23T13:57:09;99822;;;41.78;16.32
69027;BME280;56080;47.594;19.116;2022-07-23T14:02:18;99826;;;41.88;16.47
69027;BME280;56080;47.594;19.116;2022-07-23T14:07:08;99822;;;41.45;16.87
69027;BME280;56080;47.594;19.116;2022-07-23T14:12:08;99816;;;41.73;16.55
69027;BME280;56080;47.594;19.116;2022-07-23T14:17:12;99809;;;41.76;16.18
69027;BME280;56080;47.594;19.116;2022-07-23T14:22:08;99802;;;41.91;15.78
69027;BME280;56080;47.594;19.116;2022-07-23T14:27:08;99790;;;42.00;15.46
69027;BME280;56080;47.594;19.116;2022-07-23T14:32:08;99770;;;41.85;15.83
69027;BME280;56080;47.594;19.116;2022-07-23T14:37:09;99760;;;41.72;15.82
69027;BME280;56080;47.594;19.116;2022-07-23T14:42:08;99745;;;40.97;15.83
69027;BME280;56080;47.594;19.116;2022-07-23T14:47:10;99740;;;41.39;15.71
69027;BME280;56080;47.594;19.116;2022-07-23T14:57:09;99738;;;40.89;16.16
69027;BME280;56080;47.594;19.116;2022-07-23T15:02:08;99741;;;40.88;16.00
69027;BME280;56080;47.594;19.116;2022-07-23T15:07:10;99745;;;40.83;15.70
69027;BME280;56080;47.594;19.116;2022-07-23T15:12:13;99750;;;40.74;15.55
69027;BME280;56080;47.594;19.116;2022-07-23T15:17:08;99757;;;40.73;15.90
69027;BME280;56080;47.594;19.116;2022-07-23T15:22:08;99761;;;40.24;16.88
69027;BME280;56080;47.594;19.116;2022-07-23T15:27:08;99767;;;39.88;17.76
69027;BME280;56080;47.594;19.116;2022-07-23T15:32:08;99763;;;40.52;17.58
69027;BME280;56080;47.594;19.116;2022-07-23T15:37:14;99759;;;39.60;18.94
69027;BME280;56080;47.594;19.116;2022-07-23T15:42:14;99772;;;39.89;19.15
69027;BME280;56080;47.594;19.116;2022-07-23T15:47:13;99787;;;39.72;20.22
69027;BME280;56080;47.594;19.116;2022-07-23T15:52:09;99830;;;38.92;21.46
69027;BME280;56080;47.594;19.116;2022-07-23T15:57:09;99880;;;37.58;22.93
69027;BME280;56080;47.594;19.116;2022-07-23T16:02:08;99900;;;34.37;28.53
69027;BME280;56080;47.594;19.116;2022-07-23T16:07:16;99888;;;33.62;30.10
69027;BME280;56080;47.594;19.116;2022-07-23T16:12:09;99909;;;33.09;31.10
69027;BME280;56080;47.594;19.116;2022-07-23T16:17:08;99920;;;32.71;31.90
69027;BME280;56080;47.594;19.116;2022-07-23T16:22:10;99942;;;32.97;31.51
69027;BME280;56080;47.594;19.116;2022-07-23T16:27:08;99941;;;32.76;31.80
69027;BME280;56080;47.594;19.116;2022-07-23T16:32:08;99986;;;34.39;29.50
69027;BME280;56080;47.594;19.116;2022-07-23T16:37:09;100013;;;36.79;24.96
69027;BME280;56080;47.594;19.116;2022-07-23T16:42:08;100001;;;35.96;25.87
69027;BME280;56080;47.594;19.116;2022-07-23T16:47:08;99990;;;34.79;28.67
69027;BME280;56080;47.594;19.116;2022-07-23T16:52:08;99986;;;33.17;33.37
69027;BME280;56080;47.594;19.116;2022-07-23T16:57:08;100014;;;32.98;37.23
69027;BME280;56080;47.594;19.116;2022-07-23T17:02:08;100033;;;30.35;43.81
69027;BME280;56080;47.594;19.116;2022-07-23T17:07:08;100022;;;29.76;45.78
69027;BME280;56080;47.594;19.116;2022-07-23T17:12:08;100023;;;29.56;45.97
69027;BME280;56080;47.594;19.116;2022-07-23T17:17:11;99982;;;29.18;45.85
69027;BME280;56080;47.594;19.116;2022-07-23T17:22:08;99970;;;29.31;45.30
69027;BME280;56080;47.594;19.116;2022-07-23T17:27:08;99951;;;29.49;43.70
69027;BME280;56080;47.594;19.116;2022-07-23T17:32:08;99923;;;29.63;43.58
69027;BME280;56080;47.594;19.116;2022-07-23T17:42:08;99926;;;29.80;41.18
69027;BME280;56080;47.594;19.116;2022-07-23T17:47:08;99927;;;29.73;41.19
69027;BME280;56080;47.594;19.116;2022-07-23T17:52:08;99919;;;29.03;43.82
69027;BME280;56080;47.594;19.116;2022-07-23T17:57:09;99924;;;28.82;44.41
69027;BME280;56080;47.594;19.116;2022-07-23T18:02:08;99932;;;28.78;44.91
69027;BME280;56080;47.594;19.116;2022-07-23T18:07:08;99935;;;28.64;45.06
69027;BME280;56080;47.594;19.116;2022-07-23T18:12:08;99933;;;28.54;45.10
69027;BME280;56080;47.594;19.116;2022-07-23T18:17:08;99942;;;28.74;44.94
69027;BME280;56080;47.594;19.116;2022-07-23T18:22:08;99952;;;28.95;44.30
69027;BME280;56080;47.594;19.116;2022-07-23T18:27:09;99961;;;28.44;45.30
69027;BME280;56080;47.594;19.116;2022-07-23T18:32:09;99965;;;28.59;45.10
69027;BME280;56080;47.594;19.116;2022-07-23T18:37:09;99956;;;28.92;44.00
69027;BME280;56080;47.594;19.116;2022-07-23T18:42:09;99959;;;28.76;44.23
69027;BME280;56080;47.594;19.116;2022-07-23T18:47:08;99957;;;28.81;45.45
69027;BME280;56080;47.594;19.116;2022-07-23T18:52:08;99957;;;28.63;45.70
69027;BME280;56080;47.594;19.116;2022-07-23T18:57:10;99966;;;28.77;44.50
69027;BME280;56080;47.594;19.116;2022-07-23T19:02:08;99980;;;28.70;44.67
69027;BME280;56080;47.594;19.116;2022-07-23T19:07:08;99991;;;28.73;43.91
69027;BME280;56080;47.594;19.116;2022-07-23T19:12:08;99995;;;28.82;43.76
69027;BME280;56080;47.594;19.116;2022-07-23T19:17:09;100003;;;28.81;42.72
69027;BME280;56080;47.594;19.116;2022-07-23T19:22:09;100010;;;28.83;42.87
69027;BME280;56080;47.594;19.116;2022-07-23T19:27:08;100021;;;28.74;42.98
69027;BME280;56080;47.594;19.116;2022-07-23T19:32:08;100024;;;28.50;43.95
69027;BME280;56080;47.594;19.116;2022-07-23T19:37:11;100032;;;28.37;44.64
69027;BME280;56080;47.594;19.116;2022-07-23T19:42:09;100030;;;28.06;45.74
69027;BME280;56080;47.594;19.116;2022-07-23T19:47:09;100033;;;27.93;46.35
69027;BME280;56080;47.594;19.116;2022-07-23T19:52:10;100034;;;27.82;46.77
69027;BME280;56080;47.594;19.116;2022-07-23T19:57:08;100032;;;27.77;46.94
69027;BME280;56080;47.594;19.116;2022-07-23T20:02:08;100029;;;27.65;47.37
69027;BME280;56080;47.594;19.116;2022-07-23T20:07:11;100024;;;27.43;47.77
69027;BME280;56080;47.594;19.116;2022-07-23T20:12:08;100029;;;27.52;47.60
69027;BME280;56080;47.594;19.116;2022-07-23T20:17:09;100030;;;27.61;46.85
69027;BME280;56080;47.594;19.116;2022-07-23T20:22:08;100034;;;27.82;45.46
69027;BME280;56080;47.594;19.116;2022-07-23T20:27:09;100035;;;27.89;45.24
69027;BME280;56080;47.594;19.116;2022-07-23T20:32:08;100034;;;27.97;44.29
69027;BME280;56080;47.594;19.116;2022-07-23T20:37:08;100034;;;27.93;44.20
69027;BME280;56080;47.594;19.116;2022-07-23T20:42:08;100033;;;27.99;44.48
69027;BME280;56080;47.594;19.116;2022-07-23T20:47:08;100034;;;27.91;44.44
69027;BME280;56080;47.594;19.116;2022-07-23T20:52:08;100034;;;27.87;44.82
69027;BME280;56080;47.594;19.116;2022-07-23T20:57:08;100040;;;27.79;44.71
69027;BME280;56080;47.594;19.116;2022-07-23T21:02:08;100041;;;27.65;44.83
69027;BME280;56080;47.594;19.116;2022-07-23T21:07:18;100049;;;27.74;44.34
69027;BME280;56080;47.594;19.116;2022-07-23T21:12:15;100048;;;27.85;44.61
69027;BME280;56080;47.594;19.116;2022-07-23T21:17:08;100046;;;27.69;46.62
69027;BME280;56080;47.594;19.116;2022-07-23T21:22:08;100045;;;27.74;45.49
69027;BME280;56080;47.594;19.116;2022-07-23T21:27:11;100054;;;27.48;45.26
69027;BME280;56080;47.594;19.116;2022-07-23T21:32:08;100054;;;27.41;45.31
69027;BME280;56080;47.594;19.116;2022-07-23T21:37:08;100063;;;27.38;45.68
69027;BME280;56080;47.594;19.116;2022-07-23T21:42:08;100068;;;27.21;45.88
69027;BME280;56080;47.594;19.116;2022-07-23T21:47:08;100079;;;27.19;46.14
69027;BME280;56080;47.594;19.116;2022-07-23T21:52:08;100078;;;27.09;46.52
69027;BME280;56080;47.594;19.116;2022-07-23T21:57:08;100086;;;26.95;46.90
69027;BME280;56080;47.594;19.116;2022-07-23T22:02:08;100093;;;26.92;47.63
69027;BME280;56080;47.594;19.116;2022-07-23T22:07:08;100096;;;26.87;48.06
69027;BME280;56080;47.594;19.116;2022-07-23T22:12:08;100104;;;26.58;51.57
69027;BME280;56080;47.594;19.116;2022-07-23T22:17:08;100103;;;26.47;53.06
69027;BME280;56080;47.594;19.116;2022-07-23T22:22:08;100102;;;26.00;55.83
69027;BME280;56080;47.594;19.116;2022-07-23T22:27:08;100089;;;26.06;56.12
69027;BME280;56080;47.594;19.116;2022-07-23T22:32:08;100077;;;26.16;52.99
69027;BME280;56080;47.594;19.116;2022-07-23T22:37:08;100065;;;25.97;55.03
69027;BME280;56080;47.594;19.116;2022-07-23T22:47:08;100073;;;26.11;54.93
69027;BME280;56080;47.594;19.116;2022-07-23T22:52:11;100069;;;26.03;54.98
69027;BME280;56080;47.594;19.116;2022-07-23T22:57:08;100088;;;26.08;55.05
69027;BME280;56080;47.594;19.116;2022-07-23T23:02:08;100096;;;25.87;55.20
69027;BME280;56080;47.594;19.116;2022-07-23T23:07:08;100079;;;25.41;57.36
69027;BME280;56080;47.594;19.116;2022-07-23T23:12:08;100083;;;25.50;57.03
69027;BME280;56080;47.594;19.116;2022-07-23T23:17:09;100089;;;25.55;56.74
69027;BME280;56080;47.594;19.116;2022-07-23T23:22:08;100102;;;25.32;57.18
69027;BME280;56080;47.594;19.116;2022-07-23T23:27:10;100114;;;25.22;58.71
69027;BME280;56080;47.594;19.116;2022-07-23T23:32:08;100117;;;24.99;59.49
69027;BME280;56080;47.594;19.116;2022-07-23T23:37:08;100116;;;24.82;61.10
69027;BME280;56080;47.594;19.116;2022-07-23T23:42:08;100131;;;24.87;60.63
69027;BME280;56080;47.594;19.116;2022-07-23T23:47:09;100149;;;24.91;59.47
69027;BME280;56080;47.594;19.116;2022-07-23T23:52:08;100162;;;25.11;58.96
69027;BME280;56080;47.594;19.116;2022-07-23T23:57:08;100189;;;24.98;58.16
